WetterOnline ( https://www.wetteronline.de )

Wetter aktuell kleiner Feldberg

Aktuelles Wetter: Kleiner Feldberg (826m)

6-stündlich | Neueste Meldungen
Ortszeit Temperatur Wetter
Fr, 23.02. 13:00 1.6° C Regen
Fr, 23.02. 7:00 -0.8° C bedeckt
Fr, 23.02. 1:00 2.0° C bewölkt
Do, 22.02. 19:00 6.1° C leichter Regen
Do, 22.02. 13:00 6.0° C leichter Regen
Do, 22.02. 7:00 4.4° C leichter Regen
Do, 22.02. 1:00 3.1° C leichter Regen
Mi, 21.02. 19:00 3.1° C bewölkt
Ortszeit Temperatur Wetter
Fr, 23.02. 15:30 2.8° C wolkig
Fr, 23.02. 15:20 2.8° C wolkig
Fr, 23.02. 15:10 2.7° C bewölkt
Fr, 23.02. 15:00 3.1° C bewölkt
Fr, 23.02. 14:50 3.1° C bewölkt
Fr, 23.02. 14:40 2.6° C bewölkt
Fr, 23.02. 14:30 1.7° C leichter Regen
Fr, 23.02. 14:00 1.6° C bewölkt
Fr, 23.02. 13:30 2.0° C bewölkt
Fr, 23.02. 13:00 1.6° C Regen
Fr, 23.02. 12:30 1.2° C Sprühregen
Ortszeit Relative Feuchte Sichtweite
Fr, 23.02. 13:00 88% 35 km
Fr, 23.02. 7:00 98% 16 km
Fr, 23.02. 1:00 87% 65 km
Do, 22.02. 19:00 100% 100 m
Do, 22.02. 13:00 100% 0.2 km
Do, 22.02. 7:00 100% 100 m
Do, 22.02. 1:00 100% 100 m
Mi, 21.02. 19:00 92% 30 km
Ortszeit Relative Feuchte Sichtweite
Fr, 23.02. 15:30 77% 50 km
Fr, 23.02. 15:20 77% -
Fr, 23.02. 15:10 77% -
Fr, 23.02. 15:00 78% 50 km
Fr, 23.02. 14:50 78% -
Fr, 23.02. 14:40 84% -
Fr, 23.02. 14:30 89% 21 km
Fr, 23.02. 14:00 85% 45 km
Fr, 23.02. 13:30 83% 40 km
Fr, 23.02. 13:00 88% 35 km
Fr, 23.02. 12:30 93% 22 km
Ortszeit Niederschlagsmenge Niederschlagsart
Fr, 23.02. 13:00 0.1 l/m2 in 6 Std. Schnee, Regen
Fr, 23.02. 7:00 2 l/m2 in 12 Std. Schnee, Regen
Fr, 23.02. 1:00 2 l/m2 in 6 Std. Regen
Do, 22.02. 19:00 14 l/m2 in 12 Std. Regen
Do, 22.02. 13:00 3 l/m2 in 6 Std. Regen
Do, 22.02. 7:00 18 l/m2 in 12 Std. Regen
Do, 22.02. 1:00 5 l/m2 in 6 Std. Regen
Mi, 21.02. 19:00 0.0 l/m2 in 12 Std. -
Ortszeit Niederschlagsmenge Niederschlagsart
Fr, 23.02. 15:30 0.0 l/m2 in 30 Min -
Fr, 23.02. 15:20 keine Meldung -
Fr, 23.02. 15:10 keine Meldung -
Fr, 23.02. 15:00 <0.05 l/m2 in 1 Std. Schnee, Regen
Fr, 23.02. 14:50 keine Meldung -
Fr, 23.02. 14:40 keine Meldung -
Fr, 23.02. 14:30 <0.05 l/m2 in 30 Min -
Fr, 23.02. 14:00 <0.05 l/m2 in 1 Std. Schnee
Fr, 23.02. 13:30 0.0 l/m2 in 30 Min -
Fr, 23.02. 13:00 <0.05 l/m2 in 1 Std. Schnee, Regen
Fr, 23.02. 12:30 <0.05 l/m2 in 30 Min -
Ortszeit Stärke Spitze Richtung
km/h Bft. km/h Grad Sektor
Fr, 23.02. 13:00 15 3 43 220° SW
Fr, 23.02. 7:00 13 3 56 230° SW
Fr, 23.02. 1:00 22 4 83 240° SW
Do, 22.02. 19:00 33 5 67 220° SW
Do, 22.02. 13:00 26 4 56 220° SW
Do, 22.02. 7:00 22 4 54 230° SW
Do, 22.02. 1:00 25 4 50 220° SW
Mi, 21.02. 19:00 22 4 39 200° S
Ortszeit Stärke Spitze Richtung
km/h Bft. km/h Grad Sektor
Fr, 23.02. 15:30 17 3 41 210° SW
Fr, 23.02. 15:20 17 3 - 210° SW
Fr, 23.02. 15:10 18 3 - 220° SW
Fr, 23.02. 15:00 14 3 36 220° SW
Fr, 23.02. 14:50 14 3 - 220° SW
Fr, 23.02. 14:40 17 3 - 220° SW
Fr, 23.02. 14:30 19 3 37 210° SW
Fr, 23.02. 14:00 18 3 43 210° SW
Fr, 23.02. 13:30 22 4 40 230° SW
Fr, 23.02. 13:00 15 3 39 220° SW
Fr, 23.02. 12:30 19 3 39 220° SW
Ortszeit Untergrenze Bedeckung Gattung
total tief tief mittel hoch
Fr, 23.02. 13:00 210 m 7/8 7/8 - - -
Fr, 23.02. 7:00 30 m 8/8 8/8 - - -
Fr, 23.02. 1:00 510 m 8/8 5/8 - - -
Do, 22.02. 19:00 <30 m 8/8 0/8 - - -
Do, 22.02. 13:00 <30 m 8/8 0/8 - - -
Do, 22.02. 7:00 <30 m 8/8 0/8 - - -
Do, 22.02. 1:00 <30 m 8/8 0/8 - - -
Mi, 21.02. 19:00 1500 m 7/8 7/8 - - -
Ortszeit Bedeckungsgrad in Achtel und Wolkenuntergrenze
Fr, 23.02. 15:30 6(1050m)
Fr, 23.02. 15:20 6(1050m)
Fr, 23.02. 15:10 7
Fr, 23.02. 15:00 1(330m) 3(480m) 7(930m)
Fr, 23.02. 14:50 1(330m) 3(480m) 7(930m)
Fr, 23.02. 14:40 7
Fr, 23.02. 14:30 3(240m) 7(510m) 7(660m)
Fr, 23.02. 14:00 5(450m) 6(600m) 7(840m)
Fr, 23.02. 13:30 2(210m) 5(480m) 7(810m)
Fr, 23.02. 13:00 6(210m) 7(330m) 7(510m)
Fr, 23.02. 12:30 6(150m) 7(330m) 8(720m)
Ortszeit Stationsdruck (hPa) Tendenz (hPa in 3 Std.)
Fr, 23.02. 13:00 901 - 0,1
Fr, 23.02. 7:00 900 + 0,6
Fr, 23.02. 1:00 897 + 4,2
Do, 22.02. 19:00 893 - 2,7
Do, 22.02. 13:00 900 - 3,1
Do, 22.02. 7:00 904 - 2,2
Do, 22.02. 1:00 909 - 2,7
Mi, 21.02. 19:00 916 - 2,6
Ortszeit Stationsdruck (hPa) Tendenz (hPa in 3 Std.)
Fr, 23.02. 15:30 901 + 0,1
Fr, 23.02. 15:20 901 keine Meldung
Fr, 23.02. 15:10 901 keine Meldung
Fr, 23.02. 15:00 901 + 0,1
Fr, 23.02. 14:50 901 keine Meldung
Fr, 23.02. 14:40 901 keine Meldung
Fr, 23.02. 14:30 901 + 0,1
Fr, 23.02. 14:00 901 0,0
Fr, 23.02. 13:30 901 - 0,2
Fr, 23.02. 13:00 901 - 0,1
Fr, 23.02. 12:30 901 0,0
Ortszeit Schneehöhe (cm)
Fr, 23.02. 13:00 0
Fr, 23.02. 7:00 0
Fr, 23.02. 1:00 0
Do, 22.02. 19:00 0
Do, 22.02. 13:00 0
Do, 22.02. 7:00 0
Do, 22.02. 1:00 0
Mi, 21.02. 19:00 0
Ortszeit Schneehöhe (cm)
Fr, 23.02. 15:30 0
Fr, 23.02. 15:20 0
Fr, 23.02. 15:10 -
Fr, 23.02. 15:00 0
Fr, 23.02. 14:50 0
Fr, 23.02. 14:40 -
Fr, 23.02. 14:30 0
Fr, 23.02. 14:00 0
Fr, 23.02. 13:30 0
Fr, 23.02. 13:00 0
Fr, 23.02. 12:30 0
Link zu dieser Seite / Seite empfehlen

Das Wetter in ...